Loyds Bridge, Louisiana
Current Conditions -  °F | °C
As of 3:53 AM on Saturday 20 Dec 2014 (Local Time) from KESF Reporting Station
Overcast Overcast  
Wind Chill: 46°   Ceiling: 700
Heat Index: 46°   Visibility: 10mi
Dew Point: 45°   Wind: 3mph
Humidity: 96%   Direction: NA
Pressure: 30.15"   Gusts: NA
Location:  31.0364°N, 92.3015°W
Report Text: KESF 200953Z AUTO VRB03KT 10SM OVC007 08/07 A3015 RMK AO2 SLP210 T00780072
Loading
Personal Weather Stations






























Interactive Weather Map New forecast layout! Learn more

10-Day Weather Forecast

Advertisements
Track Severe Weather on mobile